Price, UT (84501)

2:16 PM MST on February 10, 2016 (GMT -0700)
Castle Heights | | Change Station
CLOSE
Current Station
Personal Weather Station
Location: Castle Dale, UT
Elevation: 5843 ft
Nearby Weather Stations

Elev 5843 ft 39.23 °N, 111.02 °W | Updated 13 minutes ago

Clear
Clear
40.7 °F
Feels Like 41 °F
N
3.0
Wind Variable Wind from East
Gusts 3.0 mph

Today
High -- | Low -- °F
--% Chance of Precip.
Yesterday
High -- | Low -- °F
Precip. -- in
Pressure 30.47 in
Visibility 0.5 miles
Clouds Few 20000 ft
Windchill 41 °F
Dew Point 25 °F
Humidity 55%
Rainfall 0.00 in
Snow Depth Not available.
7:22 AM 5:54 PM
Waxing Crescent, 7% visible
METAR KPVU 102047Z 00000KT 1/2SM FG FEW200 M04/M06 A3047
Pressure 30.47 in
Visibility 0.5 miles
Clouds Few 20000 ft
Windchill 41 °F
Dew Point 25 °F
Humidity 55%
Rainfall 0.00 in
Snow Depth Not available.
7:22 AM 5:54 PM
Waxing Crescent, 7% visible
METAR KPVU 102047Z 00000KT 1/2SM FG FEW200 M04/M06 A3047

10-Day Weather Forecast

Almanac

Astronomy

Feb. 10, 2016 Rise Set
Actual Time
Civil Twilight
Nautical Twilight
Astronomical Twilight
Moon
Length of Visible Light
Length of Day
Tomorrow will be .
, % of the Moon is Illuminated

Today's Extremes

State Highs State Lows

Community

WunderPhotos

Upload Photos

1,891,949 photos uploaded!

WunderBlog® & News

Nearby

Air Quality

  Air Quality AQ Index Pollutant
Not available.

Snow Depth

Station Depth Elevation

Earthquake Activity

City Distance Mag. Time & Date
Minimum magnitude displayed is 2.5.

Coastal Water Temperatures

Place Temperature

Stations

Nearby Weather Stations

Station Location Temp. Windchill Dew Point Humidity Wind Precip. Elev Updated Type
                   

Watches & Warnings

There are currently no watches in effect.